^^
Grace C. Lehan Memorial Weather Station Historical Data
Daily Summary for September 1, 2021 Units:  English    Metric   Both
Daily Weekly Monthly Yearly
  High: Low: Average:
Temperature: 48.8 °F 33.5 °F 40.7 °F
Dew Point: 34.9 °F 29.3 °F 31.5 °F
Humidity: 89% 48.6% 71%
Wind Speed: 8.4mph 0mph 1mph
Wind Gust: 19mph - -
Wind- - West
Pressure: 30.12 in 29.89 in -
Precipitation: 0.00 in    
 
 
Tabular Data for September 1, 2021
Time Temperature Dew Point Pressure Wind Wind Speed Wind Gust Humidity Rainfall Rate (Hourly) solar
00:04 35.8 °F 31.1 °F 29.89 in Calm   3 mph 83% 0.00 in 0 W/m2
00:09 35.7 °F 31.1 °F 29.89 in Calm     83% 0.00 in 0 W/m2
00:14 35.6 °F 31 °F 29.89 in Calm     83% 0.00 in 0 W/m2
00:19 35.6 °F 31 °F 29.89 in Calm     83% 0.00 in 0 W/m2
00:24 35.5 °F 31 °F 29.89 in Calm     83.5% 0.00 in 0 W/m2
00:29 35.6 °F 31.2 °F 29.89 in Calm     84% 0.00 in 0 W/m2
00:34 35.6 °F 31.3 °F 29.90 in Calm     84% 0.00 in 0 W/m2
00:39 35.6 °F 31.3 °F 29.90 in SW 0.2 mph 3 mph 84% 0.00 in 0 W/m2
00:44 35.7 °F 31.3 °F 29.89 in SW 0.2 mph 3 mph 84% 0.00 in 0 W/m2
00:49 35.7 °F 31.4 °F 29.89 in Calm   3 mph 84% 0.00 in 0 W/m2
00:54 35.7 °F 31.4 °F 29.90 in SW 0.4 mph 4 mph 84% 0.00 in 0 W/m2
00:59 35.9 °F 31.5 °F 29.91 in SW 0.7 mph 5 mph 84% 0.00 in 0 W/m2
01:04 36 °F 31.7 °F 29.91 in WSW 0.6 mph 5 mph 84% 0.00 in 0 W/m2
01:09 36.2 °F 31.8 °F 29.91 in WSW 0.8 mph 5 mph 84% 0.00 in 0 W/m2
01:14 36.3 °F 32 °F 29.91 in SW 1.3 mph 6 mph 84% 0.00 in 0 W/m2
01:19 36.5 °F 31.9 °F 29.91 in SW 2.8 mph 11 mph 83.4% 0.00 in 0 W/m2
01:24 36.6 °F 31.9 °F 29.92 in SW 0.5 mph 11 mph 83% 0.00 in 0 W/m2
01:29 36.6 °F 32 °F 29.92 in SW 0.2 mph 11 mph 83% 0.00 in 0 W/m2
01:34 36.6 °F 31.9 °F 29.92 in SW 0.2 mph 11 mph 82.6% 0.00 in 0 W/m2
01:39 36.6 °F 31.6 °F 29.92 in SW 1.2 mph 7 mph 82% 0.00 in 0 W/m2
01:44 36.6 °F 31.6 °F 29.92 in WSW 0.9 mph 9 mph 82% 0.00 in 0 W/m2
01:49 36.5 °F 31.6 °F 29.93 in WSW 1.2 mph 9 mph 82% 0.00 in 0 W/m2
01:54 36.4 °F 31.5 °F 29.93 in WSW 0.9 mph 9 mph 82% 0.00 in 0 W/m2
01:59 36.4 °F 31.4 °F 29.93 in WSW 0.5 mph 9 mph 82% 0.00 in 0 W/m2
02:04 36.3 °F 31.4 °F 29.93 in WSW 0.3 mph 9 mph 82% 0.00 in 0 W/m2
02:09 36.3 °F 31.6 °F 29.93 in WSW 0.5 mph 6 mph 82.7% 0.00 in 0 W/m2
02:14 36.3 °F 31.6 °F 29.94 in WSW 1 mph 7 mph 83% 0.00 in 0 W/m2
02:19 36.3 °F 31.6 °F 29.94 in SW 1.3 mph 9 mph 83% 0.00 in 0 W/m2
02:24 36.3 °F 31.6 °F 29.93 in WSW 0.8 mph 11 mph 83% 0.00 in 0 W/m2
02:29 36.3 °F 31.6 °F 29.94 in WSW 0.7 mph 11 mph 83% 0.00 in 0 W/m2
02:34 36.3 °F 31.6 °F 29.94 in WSW 0.2 mph 11 mph 83% 0.00 in 0 W/m2
02:39 36.3 °F 31.7 °F 29.94 in WSW 0.5 mph 6 mph 83% 0.00 in 0 W/m2
02:44 36.4 °F 31.7 °F 29.94 in WSW 1 mph 6 mph 83% 0.00 in 0 W/m2
02:49 36.3 °F 31.7 °F 29.94 in WSW 0.3 mph 6 mph 83% 0.00 in 0 W/m2
02:54 36.3 °F 31.6 °F 29.94 in SW 0.9 mph 6 mph 83% 0.00 in 0 W/m2
02:59 36.2 °F 31.5 °F 29.94 in SW 0.1 mph 6 mph 83% 0.00 in 0 W/m2
03:04 36.1 °F 31.4 °F 29.94 in SW 0.4 mph 9 mph 83% 0.00 in 0 W/m2
03:09 36 °F 31.3 °F 29.95 in SW 0.6 mph 9 mph 83% 0.00 in 0 W/m2
03:14 35.9 °F 31.4 °F 29.95 in WSW 1.5 mph 10 mph 83.7% 0.00 in 0 W/m2
03:19 35.8 °F 31.5 °F 29.95 in West 0.5 mph 10 mph 84% 0.00 in 0 W/m2
03:24 35.7 °F 31.4 °F 29.95 in WSW 0.5 mph 10 mph 84% 0.00 in 0 W/m2
03:29 35.6 °F 31.3 °F 29.95 in WSW 0.1 mph 10 mph 84% 0.00 in 0 W/m2
03:34 35.6 °F 31.2 °F 29.95 in WSW 0.1 mph 10 mph 84% 0.00 in 0 W/m2
03:39 35.5 °F 31.1 °F 29.95 in Calm   2 mph 84% 0.00 in 0 W/m2
03:44 35.4 °F 31 °F 29.96 in WSW 0.4 mph 3 mph 84% 0.00 in 0 W/m2
03:49 35.2 °F 30.9 °F 29.96 in WSW 1.8 mph 6 mph 84% 0.00 in 0 W/m2
03:54 35.2 °F 31.1 °F 29.96 in Calm   6 mph 85% 0.00 in 0 W/m2
03:59 35.1 °F 31 °F 29.96 in WSW 0.8 mph 10 mph 85% 0.00 in 0 W/m2
04:09 34.9 °F 30.9 °F 29.97 in SW 0.1 mph 2 mph 85.3% 0.00 in 0 W/m2
04:14 34.8 °F 30.9 °F 29.97 in Calm   2 mph 85.5% 0.00 in 0 W/m2
04:19 34.8 °F 31 °F 29.97 in Calm   2 mph 86% 0.00 in 0 W/m2
04:24 34.7 °F 30.9 °F 29.98 in Calm   2 mph 86% 0.00 in 0 W/m2
04:29 34.5 °F 30.7 °F 29.98 in Calm   2 mph 86% 0.00 in 0 W/m2
04:34 34.1 °F 30.4 °F 29.98 in Calm   2 mph 86% 0.00 in 0 W/m2
04:39 33.8 °F 30.1 °F 29.98 in Calm     86% 0.00 in 0 W/m2
04:44 33.6 °F 29.9 °F 29.98 in Calm     86% 0.00 in 0 W/m2
04:49 33.5 °F 30 °F 29.98 in Calm     86.7% 0.00 in 0 W/m2
04:54 33.5 °F 30.1 °F 29.98 in Calm     87% 0.00 in 0 W/m2
04:59 33.5 °F 30.2 °F 29.98 in Calm     87.4% 0.00 in 0 W/m2
05:04 33.6 °F 30.4 °F 29.99 in Calm     88% 0.00 in 0 W/m2
05:09 33.6 °F 30.4 °F 29.99 in Calm     88% 0.00 in 0 W/m2
05:14 33.6 °F 30.5 °F 29.99 in SW 0.3 mph 3 mph 88% 0.00 in 0 W/m2
05:19 33.7 °F 30.5 °F 30.00 in Calm   3 mph 88% 0.00 in 0 W/m2
05:24 33.7 °F 30.5 °F 30.00 in Calm   3 mph 88% 0.00 in 0 W/m2
05:29 33.6 °F 30.4 °F 30.00 in Calm   3 mph 88% 0.00 in 0 W/m2
05:34 33.5 °F 30.4 °F 30.00 in Calm   3 mph 88% 0.00 in 0 W/m2
05:39 33.5 °F 30.3 °F 30.01 in Calm     88% 0.00 in 0 W/m2
05:44 33.5 °F 30.3 °F 30.01 in Calm     88% 0.00 in 0 W/m2
05:49 33.5 °F 30.4 °F 30.01 in Calm     88.1% 0.00 in 0 W/m2
05:54 33.7 °F 30.8 °F 30.01 in Calm     89% 0.00 in 0 W/m2
05:59 33.8 °F 30.9 °F 30.01 in Calm     89% 0.00 in 0 W/m2
06:04 33.9 °F 31 °F 30.02 in Calm     89% 0.00 in 0 W/m2
06:09 34 °F 31.2 °F 30.02 in Calm     89% 0.00 in 0 W/m2
06:14 34.2 °F 31.1 °F 30.02 in Calm     88.2% 0.00 in 0 W/m2
06:19 34.3 °F 31.1 °F 30.03 in Calm   1 mph 88% 0.00 in 0 W/m2
06:24 34.4 °F 31.2 °F 30.03 in Calm   1 mph 88% 0.00 in 0 W/m2
06:29 34.5 °F 31.4 °F 30.03 in Calm   1 mph 88% 0.00 in 0 W/m2
06:34 34.6 °F 31.5 °F 30.03 in Calm   1 mph 88% 0.00 in 0 W/m2
06:39 34.8 °F 31.5 °F 30.03 in Calm     87.6% 0.00 in 0 W/m2
06:44 34.9 °F 31.4 °F 30.04 in SW 0.4 mph 2 mph 87% 0.00 in 0 W/m2
06:49 35.1 °F 31.6 °F 30.04 in Calm   2 mph 87% 0.00 in 0 W/m2
06:54 35.1 °F 31.5 °F 30.05 in Calm   2 mph 86.3% 0.00 in 5 W/m2
06:59 35 °F 31.3 °F 30.05 in Calm   2 mph 86% 0.00 in 5 W/m2
07:04 34.9 °F 31.2 °F 30.06 in Calm   2 mph 86% 0.00 in 11 W/m2
07:09 34.8 °F 31.1 °F 30.06 in Calm     86% 0.00 in 14 W/m2
07:14 34.8 °F 31.1 °F 30.07 in Calm     86% 0.00 in 18 W/m2
07:19 34.8 °F 31 °F 30.07 in SW 0.1 mph 3 mph 86% 0.00 in 19 W/m2
07:24 34.7 °F 31.2 °F 30.07 in Calm   3 mph 86.8% 0.00 in 21 W/m2
07:29 34.7 °F 31.2 °F 30.07 in Calm   3 mph 87% 0.00 in 23 W/m2
07:34 34.7 °F 31.2 °F 30.06 in Calm   3 mph 87% 0.00 in 32 W/m2
07:39 34.7 °F 31.2 °F 30.06 in SW 0.1 mph 3 mph 87% 0.00 in 56 W/m2
07:44 34.9 °F 31.5 °F 30.06 in Calm   3 mph 87.2% 0.00 in 84 W/m2
07:49 35.3 °F 32.1 °F 30.06 in WSW 0.3 mph 3 mph 88% 0.00 in 95 W/m2
07:54 35.8 °F 32.5 °F 30.07 in WSW 1.2 mph 7 mph 87.7% 0.00 in 100 W/m2
07:59 36.4 °F 32.9 °F 30.07 in WSW 0.7 mph 7 mph 86.8% 0.00 in 137 W/m2
08:00 36.8 °F 33 °F 30.07 in Calm   7 mph 86% 0.00 in 137 W/m2
08:09 37.9 °F 33.7 °F 30.07 in WSW 0.9 mph 7 mph 84.8% 0.00 in 158 W/m2
08:14 38.6 °F 34 °F 30.07 in WSW 0.1 mph 7 mph 83.4% 0.00 in 181 W/m2
08:19 39.4 °F 34.3 °F 30.07 in WSW 0.1 mph 7 mph 82.1% 0.00 in 204 W/m2
08:24 40.1 °F 34.6 °F 30.07 in Calm   7 mph 80.5% 0.00 in 207 W/m2
08:29 40.8 °F 34.6 °F 30.08 in WSW 0.2 mph 7 mph 78.4% 0.00 in 218 W/m2
08:34 41.4 °F 34.8 °F 30.08 in WSW 1 mph 7 mph 77.3% 0.00 in 236 W/m2
08:39 42 °F 34.9 °F 30.08 in WSW 0.8 mph 4 mph 75.8% 0.00 in 221 W/m2
08:44 42.5 °F 34.6 °F 30.08 in WSW 1.6 mph 7 mph 73.6% 0.00 in 227 W/m2
08:49 42.8 °F 34.7 °F 30.08 in WSW 0.6 mph 7 mph 72.9% 0.00 in 200 W/m2
08:54 43 °F 34.4 °F 30.09 in WSW 0.5 mph 7 mph 71.6% 0.00 in 155 W/m2
08:59 43 °F 34.3 °F 30.09 in WSW 0.6 mph 7 mph 71.2% 0.00 in 155 W/m2
09:04 43 °F 34.4 °F 30.09 in West 1.1 mph 7 mph 71.5% 0.00 in 162 W/m2
09:09 43 °F 34.2 °F 30.10 in West 0.7 mph 7 mph 71% 0.00 in 179 W/m2
09:14 43 °F 34.2 °F 30.10 in WSW 1.2 mph 7 mph 70.7% 0.00 in 98 W/m2
09:19 42.9 °F 33.8 °F 30.10 in WSW 0.7 mph 7 mph 70% 0.00 in 90 W/m2
09:24 42.7 °F 33.9 °F 30.10 in WSW 0.1 mph 7 mph 70.7% 0.00 in 120 W/m2
09:29 42.6 °F 33.8 °F 30.10 in WSW 1.3 mph 7 mph 71% 0.00 in 162 W/m2
09:34 42.5 °F 33.9 °F 30.10 in WSW 1.8 mph 7 mph 71.3% 0.00 in 209 W/m2
09:39 42.8 °F 34.1 °F 30.10 in WSW 0.6 mph 5 mph 71.1% 0.00 in 209 W/m2
09:44 43 °F 34.3 °F 30.10 in WSW 0.4 mph 5 mph 71% 0.00 in 155 W/m2
09:49 43.4 °F 34.4 °F 30.10 in WSW 1.7 mph 5 mph 70.4% 0.00 in 172 W/m2
09:54 43.7 °F 34.2 °F 30.10 in West 0.4 mph 5 mph 69.1% 0.00 in 207 W/m2
09:59 44.1 °F 34.2 °F 30.10 in WSW 0.9 mph 5 mph 68.1% 0.00 in 262 W/m2
10:04 44.4 °F 34.2 °F 30.10 in WSW 1 mph 6 mph 67.1% 0.00 in 229 W/m2
10:09 44.8 °F 34.5 °F 30.10 in WSW 0.9 mph 7 mph 67.2% 0.00 in 207 W/m2
10:14 45 °F 34 °F 30.10 in West 1.5 mph 9 mph 65.1% 0.00 in 185 W/m2
10:19 45.1 °F 34.1 °F 30.10 in West 0.1 mph 9 mph 65% 0.00 in 149 W/m2
10:24 45.2 °F 34.2 °F 30.10 in Calm   9 mph 65% 0.00 in 135 W/m2
10:29 45.2 °F 34.2 °F 30.10 in West 1.2 mph 9 mph 65% 0.00 in 139 W/m2
10:34 45.1 °F 33.5 °F 30.10 in West 0.3 mph 9 mph 63.6% 0.00 in 160 W/m2
10:39 45.1 °F 33.5 °F 30.09 in WSW 1.4 mph 5 mph 63.7% 0.00 in 174 W/m2
10:44 45 °F 33.5 °F 30.09 in Calm   5 mph 63.7% 0.00 in 181 W/m2
10:49 45.1 °F 33.8 °F 30.09 in WSW 0.2 mph 5 mph 64.3% 0.00 in 202 W/m2
10:54 45.3 °F 33.7 °F 30.09 in West 0.8 mph 5 mph 63.7% 0.00 in 253 W/m2
10:59 45.6 °F 34 °F 30.09 in West 0.9 mph 5 mph 63.5% 0.00 in 267 W/m2
11:04 46.1 °F 34.5 °F 30.09 in WNW 0.8 mph 5 mph 63.7% 0.00 in 244 W/m2
11:09 46.7 °F 33.7 °F 30.08 in West 2.4 mph 8 mph 60.5% 0.00 in 220 W/m2
11:14 47.1 °F 33.2 °F 30.08 in West 2.7 mph 10 mph 58.3% 0.00 in 218 W/m2
11:19 47.5 °F 33.3 °F 30.08 in West 2.6 mph 10 mph 57.6% 0.00 in 250 W/m2
11:24 47.8 °F 32.5 °F 30.08 in West 4.7 mph 14 mph 55.3% 0.00 in 260 W/m2
11:29 47.9 °F 32.2 °F 30.08 in WNW 3.2 mph 14 mph 54.3% 0.00 in 225 W/m2
11:34 47.9 °F 32.5 °F 30.08 in WNW 2.6 mph 14 mph 54.9% 0.00 in 274 W/m2
11:39 47.9 °F 31.9 °F 30.08 in WNW 3.1 mph 9 mph 53.6% 0.00 in 288 W/m2
11:44 48 °F 31.6 °F 30.08 in WNW 4 mph 12 mph 52.8% 0.00 in 279 W/m2
11:49 47.9 °F 31.1 °F 30.08 in WNW 7.6 mph 17 mph 52% 0.00 in 306 W/m2
11:54 47.7 °F 31 °F 30.08 in West 4.2 mph 17 mph 52.1% 0.00 in 406 W/m2
11:59 47.9 °F 30.8 °F 30.08 in West 3.6 mph 17 mph 51.3% 0.00 in 302 W/m2
12:00 48.1 °F 30.8 °F 30.08 in WNW 3 mph 17 mph 51% 0.00 in 302 W/m2
12:09 48.3 °F 29.8 °F 30.08 in WNW 7.1 mph 18 mph 48.6% 0.00 in 355 W/m2
12:14 48.2 °F 30 °F 30.08 in WNW 4.6 mph 18 mph 49% 0.00 in 357 W/m2
12:19 48.2 °F 30 °F 30.08 in WNW 4 mph 18 mph 49.1% 0.00 in 199 W/m2
12:24 48.3 °F 30.1 °F 30.09 in WNW 4.5 mph 18 mph 49.2% 0.00 in 213 W/m2
12:29 48.4 °F 30.1 °F 30.09 in WNW 4.8 mph 18 mph 49% 0.00 in 251 W/m2
12:34 48.5 °F 30.2 °F 30.09 in WNW 8.4 mph 19 mph 49% 0.00 in 258 W/m2
12:39 48.3 °F 30.1 °F 30.09 in WNW 4 mph 17 mph 49.2% 0.00 in 236 W/m2
12:44 48.2 °F 30.6 °F 30.09 in West 1.7 mph 17 mph 50.4% 0.00 in 234 W/m2
12:49 48.2 °F 30.4 °F 30.08 in West 2.8 mph 17 mph 49.9% 0.00 in 234 W/m2
12:54 48.2 °F 30.3 °F 30.09 in WNW 4.1 mph 17 mph 49.6% 0.00 in 204 W/m2
12:59 48.3 °F 30.5 °F 30.09 in WNW 4 mph 17 mph 50% 0.00 in 211 W/m2
13:04 48.2 °F 30.5 °F 30.09 in WNW 3.9 mph 17 mph 50% 0.00 in 200 W/m2
13:09 48.1 °F 30.4 °F 30.09 in WNW 4.6 mph 13 mph 50.1% 0.00 in 179 W/m2
13:14 47.9 °F 30.6 °F 30.09 in WNW 4.3 mph 13 mph 50.8% 0.00 in 174 W/m2
13:19 47.8 °F 30.6 °F 30.09 in WNW 1.7 mph 13 mph 51.1% 0.00 in 158 W/m2
13:24 47.8 °F 30.7 °F 30.09 in WNW 2.1 mph 13 mph 51.3% 0.00 in 146 W/m2
13:29 47.8 °F 31.2 °F 30.09 in WNW 4.5 mph 13 mph 52.3% 0.00 in 142 W/m2
13:34 47.8 °F 30.8 °F 30.09 in NW 2.8 mph 13 mph 51.5% 0.00 in 183 W/m2
13:39 47.8 °F 30.9 °F 30.09 in WNW 2 mph 10 mph 51.7% 0.00 in 223 W/m2
13:44 47.8 °F 30.9 °F 30.09 in WNW 3 mph 11 mph 51.6% 0.00 in 202 W/m2
13:49 47.9 °F 30.7 °F 30.09 in West 3 mph 11 mph 51.1% 0.00 in 327 W/m2
13:54 48.2 °F 31.5 °F 30.09 in WSW 1.2 mph 11 mph 52.2% 0.00 in 248 W/m2
13:59 48.6 °F 31.3 °F 30.09 in West 1.6 mph 11 mph 50.9% 0.00 in 142 W/m2
14:04 48.8 °F 31 °F 30.09 in WNW 3.9 mph 13 mph 50% 0.00 in 134 W/m2
14:09 48.6 °F 30.8 °F 30.09 in WSW 2 mph 13 mph 50% 0.00 in 179 W/m2
14:14 48.4 °F 30.7 °F 30.09 in WSW 1.7 mph 13 mph 50% 0.00 in 113 W/m2
14:19 48.3 °F 31 °F 30.09 in WSW 1.7 mph 13 mph 51% 0.00 in 81 W/m2
14:24 48.3 °F 31 °F 30.09 in WSW 1.4 mph 13 mph 51% 0.00 in 81 W/m2
14:29 48.2 °F 31.1 °F 30.09 in West 0.5 mph 13 mph 51.3% 0.00 in 81 W/m2
14:34 48.1 °F 31.1 °F 30.09 in WNW 1.7 mph 13 mph 51.5% 0.00 in 65 W/m2
14:39 47.8 °F 30.6 °F 30.09 in WNW 2.2 mph 10 mph 51% 0.00 in 44 W/m2
14:44 47.6 °F 30.7 °F 30.09 in West 0.3 mph 10 mph 51.7% 0.00 in 37 W/m2
14:49 47.5 °F 30.7 °F 30.09 in West 0.8 mph 10 mph 52% 0.00 in 32 W/m2
14:54 47.3 °F 30.6 °F 30.09 in West 1.4 mph 10 mph 52% 0.00 in 28 W/m2
14:59 47.1 °F 30.4 °F 30.09 in WNW 2.1 mph 10 mph 52% 0.00 in 26 W/m2
15:04 46.8 °F 30.4 °F 30.08 in WNW 0.3 mph 10 mph 52.7% 0.00 in 25 W/m2
15:09 46.6 °F 30.4 °F 30.08 in West 0.9 mph 5 mph 53% 0.00 in 25 W/m2
15:14 46.5 °F 30.3 °F 30.08 in West 0.2 mph 5 mph 53% 0.00 in 28 W/m2
15:19 46.3 °F 30.6 °F 30.08 in West 1.1 mph 5 mph 53.9% 0.00 in 26 W/m2
15:24 46.1 °F 30.4 °F 30.09 in West 0.1 mph 5 mph 54% 0.00 in 19 W/m2
15:29 46 °F 30.3 °F 30.09 in West 1.3 mph 5 mph 54% 0.00 in 19 W/m2
15:34 45.9 °F 30.2 °F 30.09 in Calm   5 mph 54% 0.00 in 18 W/m2
15:39 45.7 °F 30.2 °F 30.09 in Calm   1 mph 54.4% 0.00 in 16 W/m2
15:44 45.5 °F 30.3 °F 30.09 in West 0.3 mph 3 mph 55% 0.00 in 14 W/m2
15:49 45.3 °F 30.1 °F 30.09 in West 0.1 mph 3 mph 55% 0.00 in 12 W/m2
15:54 45.1 °F 30 °F 30.09 in West 0.1 mph 3 mph 55.2% 0.00 in 11 W/m2
15:59 45 °F 30.2 °F 30.09 in Calm   3 mph 56% 0.00 in 9 W/m2
16:00 44.8 °F 30.1 °F 30.09 in Calm   3 mph 56% 0.00 in 7 W/m2
16:09 44.5 °F 29.9 °F 30.09 in Calm   1 mph 56.1% 0.00 in 5 W/m2
16:14 44.3 °F 30 °F 30.09 in Calm   1 mph 57% 0.00 in 0 W/m2
16:19 44.1 °F 29.8 °F 30.09 in Calm   1 mph 57% 0.00 in 0 W/m2
16:24 43.8 °F 30 °F 30.09 in Calm   1 mph 57.9% 0.00 in 0 W/m2
16:29 43.5 °F 29.8 °F 30.09 in Calm   1 mph 58% 0.00 in 0 W/m2
16:34 43.3 °F 29.8 °F 30.09 in Calm   1 mph 58.6% 0.00 in 0 W/m2
16:39 42.9 °F 29.8 °F 30.09 in Calm     59.4% 0.00 in 0 W/m2
16:44 42.6 °F 29.7 °F 30.10 in Calm     60% 0.00 in 0 W/m2
16:49 42.3 °F 29.6 °F 30.10 in Calm     60.4% 0.00 in 0 W/m2
16:54 42.1 °F 29.6 °F 30.10 in Calm     61% 0.00 in 0 W/m2
16:59 41.8 °F 29.3 °F 30.10 in Calm     61% 0.00 in 0 W/m2
17:04 41.5 °F 29.5 °F 30.10 in Calm     62% 0.00 in 0 W/m2
17:09 41.2 °F 29.5 °F 30.11 in Calm     62.6% 0.00 in 0 W/m2
17:14 41 °F 29.7 °F 30.11 in Calm     63.8% 0.00 in 0 W/m2
17:19 40.7 °F 29.5 °F 30.11 in Calm     64% 0.00 in 0 W/m2
17:24 40.4 °F 29.6 °F 30.11 in Calm     64.9% 0.00 in 0 W/m2
17:29 40.2 °F 29.5 °F 30.12 in Calm     65.3% 0.00 in 0 W/m2
17:34 39.9 °F 29.5 °F 30.12 in Calm     66% 0.00 in 0 W/m2
17:39 39.7 °F 29.3 °F 30.12 in Calm     66% 0.00 in 0 W/m2
17:44 39.4 °F 29.4 °F 30.11 in Calm     67% 0.00 in 0 W/m2
17:48 39.2 °F 29.4 °F 30.11 in Calm     67.7% 0.00 in 0 W/m2
Hartford County Weather
Compliments of Weather Underground - 4 mb